Terminal Aerodrome Forecast
Issued by NWS Tuscon, AZ

Home | Current Version | Previous Version | Text Only | Print | Product List | Glossary On
Versions: 1 2 3 4 5 6 7 8 9 10 11 12 13 14 15
473
FTUS45 KTWC 012332
TAFTUS
TAF
KTUS 012332Z 0200/0224 32007KT P6SM BKN100
     FM020400 VRB05KT P6SM SCT100
     FM020900 13007KT P6SM SKC
     FM021300 14014KT P6SM FEW070
     FM021900 VRB06KT P6SM FEW090
     FM022200 33006KT P6SM FEW100=

USA.gov is the U.S. government's official web portal to all federal, state and local government web resources and services.